Time;durP1;ratioP1;P1;durP2;ratioP2;P2;SDS_P1;SDS_P2;PMS_P1;PMS_P2;Temp;Humidity;BMP_temperature;BMP_pressure;BME280_temperature;BME280_humidity;BME280_pressure;Samples;Min_cycle;Max_cycle;Signal;HPM_P1;HPM_P2
2022/01/12 00:01:31;;;;;;;20.83;12.37;;;4.40;99.90;;;;;;5009143;28;20210;-79
2022/01/12 00:03:57;;;;;;;17.67;12.10;;;4.40;99.90;;;;;;5039158;28;20161;-79
2022/01/12 00:06:24;;;;;;;21.87;13.00;;;4.40;99.90;;;;;;5014587;28;20196;-80
2022/01/12 00:08:50;;;;;;;20.80;12.87;;;4.30;99.90;;;;;;5019577;28;20292;-80
2022/01/12 00:11:18;;;;;;;18.67;13.47;;;4.30;99.90;;;;;;5019065;28;20185;-80
2022/01/12 00:13:51;;;;;;;24.73;13.00;;;4.30;99.90;;;;;;5018423;28;20269;-79
2022/01/12 00:16:18;;;;;;;20.90;12.93;;;4.30;99.90;;;;;;5018340;28;20530;-79
2022/01/12 00:18:45;;;;;;;22.50;14.13;;;4.20;99.90;;;;;;5034144;28;20213;-77
2022/01/12 00:21:12;;;;;;;23.80;13.33;;;4.30;99.90;;;;;;5037372;28;20169;-79
2022/01/12 00:23:39;;;;;;;22.50;12.93;;;4.30;99.90;;;;;;5017222;28;20181;-80
2022/01/12 00:26:08;;;;;;;21.80;13.40;;;4.30;99.90;;;;;;5019326;28;20255;-80
2022/01/12 00:34:20;;;;;;;23.83;12.97;;;4.30;99.90;;;;;;5054264;28;20174;-80
2022/01/12 00:36:46;;;;;;;21.60;13.40;;;4.30;99.90;;;;;;5019146;28;20198;-80
2022/01/12 00:39:11;;;;;;;19.43;12.33;;;4.20;99.90;;;;;;5035962;28;20208;-79
2022/01/12 00:41:38;;;;;;;23.87;14.03;;;4.10;99.90;;;;;;5013565;28;20242;-80
2022/01/12 00:44:08;;;;;;;23.17;14.33;;;4.00;99.90;;;;;;5015652;28;20197;-80
2022/01/12 00:46:39;;;;;;;24.53;15.30;;;3.90;99.90;;;;;;5020405;28;20305;-78
2022/01/12 00:49:05;;;;;;;23.20;15.50;;;3.70;99.90;;;;;;5019168;28;20201;-82
2022/01/12 00:51:37;;;;;;;27.63;16.50;;;3.60;99.90;;;;;;5019084;28;20182;-79
2022/01/12 00:54:03;;;;;;;28.47;16.07;;;3.40;99.90;;;;;;5019679;28;20189;-79
2022/01/12 00:56:29;;;;;;;27.70;17.90;;;3.30;99.90;;;;;;5003851;28;20287;-79
2022/01/12 00:58:57;;;;;;;27.57;17.87;;;3.30;99.90;;;;;;5020180;28;20201;-80
2022/01/12 01:01:23;;;;;;;27.67;17.87;;;3.30;99.90;;;;;;5008455;28;20205;-79
2022/01/12 01:03:51;;;;;;;33.83;17.83;;;3.20;99.90;;;;;;5016759;28;20257;-79
2022/01/12 01:06:18;;;;;;;31.37;18.67;;;3.20;99.90;;;;;;5018929;28;20174;-79
2022/01/12 01:08:48;;;;;;;26.97;17.40;;;3.20;99.90;;;;;;5020537;28;20209;-79
2022/01/12 01:11:23;;;;;;;30.67;17.17;;;3.20;99.90;;;;;;5018125;28;20219;-78
2022/01/12 01:14:03;;;;;;;30.83;19.00;;;3.20;99.90;;;;;;5019901;28;20169;-79
2022/01/12 01:28:12;;;;;;;30.33;19.20;;;3.20;99.90;;;;;;5006631;28;20219;-80
2022/01/12 01:30:40;;;;;;;31.07;18.70;;;3.20;99.90;;;;;;5019562;28;20173;-80
2022/01/12 01:33:10;;;;;;;31.30;19.27;;;3.20;99.90;;;;;;5019123;28;20177;-79
2022/01/12 01:35:39;;;;;;;31.20;19.30;;;3.30;99.90;;;;;;5018875;28;20180;-79
2022/01/12 01:38:06;;;;;;;26.70;17.93;;;3.40;99.90;;;;;;5018991;28;20208;-79
2022/01/12 01:40:35;;;;;;;24.43;17.53;;;3.40;99.90;;;;;;5019070;28;20177;-79
2022/01/12 01:43:25;;;;;;;26.50;17.67;;;3.30;99.90;;;;;;5013977;28;20596;-79
2022/01/12 01:54:05;;;;;;;27.90;17.70;;;3.50;99.90;;;;;;5037279;28;20201;-79
2022/01/12 01:56:43;;;;;;;28.93;18.40;;;3.50;99.90;;;;;;5021380;28;20232;-78
2022/01/12 01:59:21;;;;;;;32.63;19.23;;;3.50;99.90;;;;;;5032156;28;20280;-78
2022/01/12 02:01:48;;;;;;;29.53;17.40;;;3.50;99.90;;;;;;5022883;28;20169;-79
2022/01/12 02:04:27;;;;;;;31.03;19.57;;;3.50;99.90;;;;;;5019886;28;20174;-79
2022/01/12 02:06:58;;;;;;;31.07;19.17;;;3.50;99.90;;;;;;5039795;28;20184;-79
2022/01/12 02:09:25;;;;;;;38.23;20.57;;;3.50;99.90;;;;;;5021097;28;20236;-78
2022/01/12 02:12:05;;;;;;;33.73;21.23;;;3.50;99.90;;;;;;5019288;28;20182;-78
2022/01/12 02:15:02;;;;;;;34.00;19.83;;;3.50;99.90;;;;;;5020508;28;20239;-78
2022/01/12 02:17:41;;;;;;;36.30;20.53;;;3.50;99.90;;;;;;5027521;28;20193;-78
2022/01/12 02:35:11;;;;;;;38.43;20.60;;;3.60;99.90;;;;;;5011021;28;20174;-78
2022/01/12 02:36:57;;;;;;;41.43;23.93;;;3.40;99.90;;;;;;5058661;28;20197;-79
2022/01/12 02:42:08;;;;;;;40.90;24.80;;;3.30;99.90;;;;;;5054728;28;20173;-79
2022/01/12 02:55:45;;;;;;;43.50;25.20;;;3.40;99.90;;;;;;5034464;28;20176;-79
2022/01/12 02:58:11;;;;;;;49.57;25.63;;;3.50;99.90;;;;;;5020132;28;20205;-79
2022/01/12 03:03:36;;;;;;;46.67;24.27;;;3.50;99.90;;;;;;4982942;28;20218;-79
2022/01/12 03:06:05;;;;;;;43.50;25.07;;;3.50;99.90;;;;;;5020239;28;20183;-79
2022/01/12 03:08:37;;;;;;;44.33;25.97;;;3.50;99.90;;;;;;4990449;28;1159347;-78
2022/01/12 03:11:08;;;;;;;48.33;27.00;;;3.40;99.90;;;;;;5040541;28;20174;-78
2022/01/12 03:13:35;;;;;;;44.33;26.33;;;3.30;99.90;;;;;;5054178;28;20244;-79
2022/01/12 03:16:11;;;;;;;50.57;28.90;;;3.30;99.90;;;;;;5020294;28;20311;-79
2022/01/12 03:18:40;;;;;;;53.00;29.70;;;3.30;99.90;;;;;;5022804;28;20197;-80
2022/01/12 03:21:06;;;;;;;49.97;28.37;;;3.40;99.90;;;;;;5030121;28;20648;-78
2022/01/12 03:23:38;;;;;;;51.30;28.87;;;3.40;99.90;;;;;;5019786;28;20170;-79
2022/01/12 03:26:06;;;;;;;58.73;30.33;;;3.40;99.90;;;;;;5022569;28;20548;-79
2022/01/12 03:28:32;;;;;;;56.43;31.40;;;3.20;99.90;;;;;;5019640;28;20200;-78
2022/01/12 03:31:08;;;;;;;50.27;31.93;;;3.30;99.90;;;;;;5019152;28;20178;-78
2022/01/12 03:38:57;;;;;;;51.90;32.00;;;3.30;99.90;;;;;;5034053;28;20201;-78
2022/01/12 03:41:27;;;;;;;60.97;33.03;;;3.20;99.90;;;;;;5016625;28;20172;-78
2022/01/12 03:43:54;;;;;;;62.07;33.90;;;3.20;99.90;;;;;;5022446;28;20242;-78
2022/01/12 03:46:23;;;;;;;64.27;33.90;;;3.20;99.90;;;;;;5021030;28;20177;-78
2022/01/12 03:48:49;;;;;;;58.17;33.63;;;3.10;99.90;;;;;;5039132;28;20189;-78
2022/01/12 03:51:14;;;;;;;59.30;33.13;;;3.10;99.90;;;;;;5019970;28;20166;-78
2022/01/12 03:53:52;;;;;;;59.07;35.00;;;3.10;99.90;;;;;;5022270;28;20277;-78
2022/01/12 03:56:18;;;;;;;59.23;34.20;;;3.00;99.90;;;;;;5038374;28;20173;-79
2022/01/12 03:58:43;;;;;;;58.27;34.60;;;3.00;99.90;;;;;;5019965;28;20193;-78
2022/01/12 04:01:10;;;;;;;64.97;35.97;;;3.00;99.90;;;;;;5018640;28;20180;-78
2022/01/12 04:03:43;;;;;;;68.93;38.13;;;3.00;99.90;;;;;;5018761;28;20241;-78
2022/01/12 04:08:54;;;;;;;65.43;35.47;;;3.00;99.90;;;;;;5035318;28;20561;-78
2022/01/12 04:11:19;;;;;;;68.23;37.00;;;3.00;99.90;;;;;;5016775;28;20634;-78
2022/01/12 04:13:49;;;;;;;67.17;37.10;;;3.00;99.90;;;;;;5019534;28;20240;-78
2022/01/12 04:16:16;;;;;;;68.60;36.87;;;3.10;99.90;;;;;;5011767;28;20185;-78
2022/01/12 04:18:42;;;;;;;69.73;37.23;;;3.00;99.90;;;;;;5012767;28;20277;-78
2022/01/12 04:21:17;;;;;;;73.47;37.10;;;3.00;99.90;;;;;;5035238;28;20265;-78
2022/01/12 04:23:43;;;;;;;66.97;37.30;;;3.00;99.90;;;;;;5020666;28;20173;-78
2022/01/12 04:26:11;;;;;;;70.07;37.70;;;3.10;99.90;;;;;;5019124;28;20189;-78
2022/01/12 04:28:42;;;;;;;63.47;36.10;;;3.00;99.90;;;;;;5018696;28;20760;-78
2022/01/12 04:31:09;;;;;;;62.20;35.57;;;3.00;99.90;;;;;;5013067;28;20162;-78
2022/01/12 04:33:36;;;;;;;66.03;37.17;;;3.00;99.90;;;;;;5015002;28;20181;-78
2022/01/12 04:36:03;;;;;;;66.97;35.87;;;3.10;99.90;;;;;;5021796;28;20196;-78
2022/01/12 04:38:33;;;;;;;66.90;36.53;;;3.20;99.90;;;;;;5019303;28;20284;-78
2022/01/12 04:41:06;;;;;;;68.50;35.83;;;3.20;99.90;;;;;;5015646;28;20169;-78
2022/01/12 04:43:33;;;;;;;57.70;35.20;;;3.10;99.90;;;;;;5019652;28;20215;-79
2022/01/12 04:48:36;;;;;;;59.97;35.77;;;3.10;99.90;;;;;;5034356;28;20304;-76
2022/01/12 04:51:04;;;;;;;61.43;35.57;;;3.10;99.90;;;;;;5017952;28;20208;-77
2022/01/12 04:53:31;;;;;;;66.37;36.23;;;3.10;99.90;;;;;;5019641;28;20181;-78
2022/01/12 04:56:13;;;;;;;64.93;37.17;;;3.10;99.90;;;;;;5016352;28;20511;-78
2022/01/12 04:58:39;;;;;;;62.00;36.07;;;3.20;99.90;;;;;;5019455;28;20228;-80
2022/01/12 05:01:09;;;;;;;65.17;36.57;;;3.10;99.90;;;;;;5021334;28;20201;-79
2022/01/12 05:09:08;;;;;;;78.73;38.50;;;3.10;99.90;;;;;;5032201;28;20217;-78
2022/01/12 05:14:23;;;;;;;69.53;38.23;;;3.20;99.90;;;;;;5031695;28;20683;-78
2022/01/12 05:16:48;;;;;;;67.63;36.70;;;3.30;99.90;;;;;;5021218;28;20280;-79
2022/01/12 05:19:15;;;;;;;65.77;35.37;;;3.30;99.90;;;;;;5019240;28;20308;-78
2022/01/12 05:21:41;;;;;;;70.93;36.33;;;3.30;99.90;;;;;;5021764;28;20176;-78
2022/01/12 05:24:07;;;;;;;61.27;35.43;;;3.30;99.90;;;;;;5025979;28;20170;-79
2022/01/12 05:26:34;;;;;;;62.10;35.10;;;3.30;99.90;;;;;;5024982;28;20272;-78
2022/01/12 05:29:05;;;;;;;62.70;35.30;;;3.30;99.90;;;;;;5024219;28;20189;-79
2022/01/12 05:31:32;;;;;;;59.70;33.60;;;3.20;99.90;;;;;;5020360;28;20189;-78
2022/01/12 05:34:00;;;;;;;64.10;34.50;;;3.20;99.90;;;;;;5017208;28;20232;-78
2022/01/12 05:36:31;;;;;;;60.50;33.40;;;3.20;99.90;;;;;;5018645;28;20213;-79
2022/01/12 05:39:00;;;;;;;62.33;34.00;;;3.20;99.90;;;;;;5021599;28;20311;-78
2022/01/12 05:41:28;;;;;;;67.90;35.70;;;3.20;99.90;;;;;;5017975;28;20165;-79
2022/01/12 05:43:56;;;;;;;63.77;34.03;;;3.10;99.90;;;;;;5022504;28;20181;-78
2022/01/12 05:46:25;;;;;;;58.40;32.40;;;3.10;99.90;;;;;;5020313;28;20169;-78
2022/01/12 05:51:45;;;;;;;59.80;32.97;;;3.30;99.90;;;;;;5051374;28;20184;-78
2022/01/12 05:54:11;;;;;;;64.40;34.17;;;3.20;99.90;;;;;;5019010;28;20342;-78
2022/01/12 05:56:43;;;;;;;60.37;32.73;;;3.20;99.90;;;;;;5019248;28;20208;-79
2022/01/12 05:59:15;;;;;;;61.90;34.40;;;3.30;99.90;;;;;;5017669;28;20200;-78
2022/01/12 06:01:46;;;;;;;69.77;34.70;;;3.10;99.90;;;;;;5012360;28;20205;-79
2022/01/12 06:04:11;;;;;;;60.50;34.10;;;3.20;99.90;;;;;;5009564;28;20178;-79
2022/01/12 06:06:38;;;;;;;59.57;33.50;;;3.20;99.90;;;;;;5017922;28;20644;-80
2022/01/12 06:09:04;;;;;;;59.77;33.20;;;3.20;99.90;;;;;;5013862;28;20217;-78
2022/01/12 06:11:31;;;;;;;61.07;33.47;;;3.20;99.90;;;;;;5031585;28;20637;-78
2022/01/12 06:13:59;;;;;;;56.73;31.70;;;3.30;99.90;;;;;;5034465;28;20189;-78
2022/01/12 06:16:29;;;;;;;64.90;34.73;;;3.30;99.90;;;;;;5016324;28;20184;-78
2022/01/12 06:18:56;;;;;;;65.70;32.83;;;3.20;99.90;;;;;;5035829;28;20186;-78
2022/01/12 06:21:23;;;;;;;65.60;34.10;;;3.20;99.90;;;;;;5023643;28;20173;-78
2022/01/12 06:24:06;;;;;;;64.20;33.57;;;3.20;99.90;;;;;;5021671;28;20932;-78
2022/01/12 06:26:33;;;;;;;65.87;35.13;;;3.20;99.90;;;;;;5017371;28;20228;-79
2022/01/12 06:31:42;;;;;;;64.27;34.17;;;3.20;99.90;;;;;;5038250;28;20211;-79
2022/01/12 06:34:07;;;;;;;67.50;33.87;;;3.20;99.90;;;;;;5021142;28;20181;-78
2022/01/12 06:36:41;;;;;;;66.70;34.07;;;3.20;99.90;;;;;;5022770;28;20193;-78
2022/01/12 06:39:12;;;;;;;73.53;34.13;;;3.10;99.90;;;;;;5022742;28;20557;-78
2022/01/12 06:41:39;;;;;;;62.10;31.77;;;3.20;99.90;;;;;;5034712;28;20177;-79
2022/01/12 06:44:07;;;;;;;65.13;32.53;;;3.20;99.90;;;;;;5021848;28;20176;-79
2022/01/12 06:46:38;;;;;;;68.93;32.47;;;3.30;99.90;;;;;;5039238;28;20197;-79
2022/01/12 06:49:04;;;;;;;67.97;32.27;;;3.30;99.90;;;;;;5018530;28;20201;-79
2022/01/12 06:51:30;;;;;;;70.53;32.87;;;3.40;99.90;;;;;;5038323;28;20231;-79
2022/01/12 06:54:00;;;;;;;69.47;30.80;;;3.30;99.90;;;;;;5021968;28;20184;-78
2022/01/12 06:56:25;;;;;;;69.90;31.93;;;3.20;99.90;;;;;;5019907;28;20157;-77
2022/01/12 06:58:54;;;;;;;69.33;31.70;;;3.40;99.90;;;;;;5017491;28;20193;-78
2022/01/12 07:01:21;;;;;;;69.23;31.20;;;3.40;99.90;;;;;;5016723;28;20178;-77
2022/01/12 07:03:49;;;;;;;71.03;31.80;;;3.50;99.90;;;;;;5038424;28;20169;-78
2022/01/12 07:06:15;;;;;;;68.70;30.80;;;3.50;99.90;;;;;;5022018;28;20205;-79
2022/01/12 07:08:41;;;;;;;70.30;30.87;;;3.50;99.90;;;;;;5021533;28;20233;-79
2022/01/12 07:11:12;;;;;;;67.53;31.07;;;3.50;99.90;;;;;;5016373;28;20261;-79
2022/01/12 07:13:39;;;;;;;71.80;30.63;;;3.50;99.90;;;;;;5023477;28;20189;-79
2022/01/12 07:16:05;;;;;;;65.87;30.10;;;3.50;99.90;;;;;;5022402;28;20177;-78
2022/01/12 07:18:35;;;;;;;67.47;29.13;;;3.50;99.90;;;;;;5018338;28;20702;-78
2022/01/12 07:21:08;;;;;;;71.03;31.00;;;3.50;99.90;;;;;;5036385;28;20170;-78
2022/01/12 07:23:33;;;;;;;70.70;29.73;;;3.50;99.90;;;;;;5016456;28;20163;-78
2022/01/12 07:25:59;;;;;;;80.67;33.17;;;3.50;99.90;;;;;;5014754;28;20185;-78
2022/01/12 07:28:25;;;;;;;73.20;30.43;;;3.70;99.90;;;;;;5022146;28;20204;-79
2022/01/12 07:30:51;;;;;;;69.57;29.60;;;3.70;99.90;;;;;;5019984;28;20189;-80
2022/01/12 07:33:17;;;;;;;72.37;31.00;;;3.70;99.90;;;;;;5018534;28;20629;-78
2022/01/12 07:35:50;;;;;;;77.60;33.33;;;3.70;99.90;;;;;;5022124;28;20181;-80
2022/01/12 07:38:15;;;;;;;76.87;29.97;;;3.70;99.90;;;;;;5038213;28;20292;-80
2022/01/12 07:40:41;;;;;;;67.27;30.07;;;3.70;99.90;;;;;;5019062;28;20204;-80
2022/01/12 07:43:09;;;;;;;70.03;31.07;;;3.70;99.90;;;;;;5014648;28;20627;-79
2022/01/12 07:45:36;;;;;;;71.67;29.77;;;3.80;99.90;;;;;;5019016;28;20178;-79
2022/01/12 07:48:02;;;;;;;69.70;28.73;;;3.70;99.90;;;;;;5017971;28;20204;-77
2022/01/12 07:50:28;;;;;;;74.57;29.07;;;3.70;99.90;;;;;;5016635;28;20178;-78
2022/01/12 07:52:53;;;;;;;74.00;29.57;;;3.70;99.90;;;;;;5035233;28;20180;-77
2022/01/12 07:55:27;;;;;;;69.03;26.50;;;3.60;99.90;;;;;;5020104;28;20200;-78
2022/01/12 07:57:53;;;;;;;76.47;28.20;;;3.70;99.90;;;;;;5036665;28;20253;-77
2022/01/12 08:00:20;;;;;;;65.33;28.20;;;3.70;99.90;;;;;;5032246;28;20237;-78
2022/01/12 08:02:46;;;;;;;71.60;26.10;;;3.70;99.90;;;;;;5038758;28;20190;-78
2022/01/12 08:05:11;;;;;;;65.13;26.97;;;3.70;99.90;;;;;;5042356;28;20181;-79
2022/01/12 08:07:45;;;;;;;71.00;28.73;;;3.70;99.90;;;;;;5017366;28;20181;-79
2022/01/12 08:10:59;;;;;;;68.97;28.03;;;3.70;99.90;;;;;;5048889;23;20234;-82
2022/01/12 08:15:04;;;;;;;59.77;26.70;;;3.80;99.90;;;;;;5006107;28;20206;-82
2022/01/12 08:18:15;;;;;;;70.03;27.13;;;3.80;99.90;;;;;;5006638;28;20225;-82
2022/01/12 08:21:50;;;;;;;66.80;26.37;;;3.80;99.90;;;;;;5000451;28;20175;-82
2022/01/12 08:24:19;;;;;;;57.20;24.77;;;4.10;99.90;;;;;;5020831;28;20187;-81
2022/01/12 08:26:46;;;;;;;60.33;25.43;;;4.00;99.90;;;;;;5007751;28;20178;-83
2022/01/12 08:29:14;;;;;;;62.43;25.57;;;4.00;99.90;;;;;;5006497;28;20202;-82
2022/01/12 08:31:49;;;;;;;59.03;24.67;;;4.00;99.90;;;;;;5014578;28;20175;-83
2022/01/12 08:34:17;;;;;;;61.97;25.17;;;4.10;99.90;;;;;;5001683;28;20170;-83
2022/01/12 08:36:43;;;;;;;58.80;25.17;;;4.00;99.90;;;;;;5003264;28;20250;-82
2022/01/12 08:39:09;;;;;;;60.10;25.00;;;4.10;99.90;;;;;;5004509;28;20222;-82
2022/01/12 08:42:01;;;;;;;58.37;23.87;;;4.10;99.90;;;;;;5003941;28;20685;-83
2022/01/12 08:44:29;;;;;;;57.77;24.17;;;4.10;99.90;;;;;;5021379;28;20198;-82
2022/01/12 08:46:55;;;;;;;46.57;21.13;;;4.10;99.90;;;;;;5020188;28;20189;-83
2022/01/12 08:49:31;;;;;;;45.37;20.20;;;4.00;99.90;;;;;;4998646;28;20198;-82
2022/01/12 08:52:05;;;;;;;48.83;19.50;;;3.90;99.90;;;;;;5003347;28;20267;-82
2022/01/12 08:54:34;;;;;;;53.30;19.77;;;3.90;99.90;;;;;;5020452;28;20234;-82
2022/01/12 08:57:06;;;;;;;49.33;19.50;;;3.90;99.90;;;;;;5022407;28;20209;-83
2022/01/12 08:59:32;;;;;;;42.50;19.43;;;4.00;99.90;;;;;;5008281;28;20214;-81
2022/01/12 09:02:15;;;;;;;41.67;18.30;;;4.00;99.90;;;;;;5025104;28;20187;-82
2022/01/12 09:04:46;;;;;;;43.80;19.57;;;4.10;99.90;;;;;;5010362;28;20254;-81
2022/01/12 09:07:12;;;;;;;41.17;18.23;;;4.00;99.90;;;;;;5017302;28;20175;-81
2022/01/12 09:09:38;;;;;;;45.57;19.13;;;4.10;99.90;;;;;;5017066;28;20324;-83
2022/01/12 09:12:07;;;;;;;48.13;20.10;;;4.10;99.90;;;;;;5004574;28;20186;-82
2022/01/12 09:14:33;;;;;;;46.50;19.90;;;4.10;99.90;;;;;;5010924;28;20244;-82
2022/01/12 09:17:00;;;;;;;42.13;19.37;;;4.10;99.90;;;;;;5004624;28;20266;-82
2022/01/12 09:19:30;;;;;;;44.40;18.93;;;4.10;99.90;;;;;;5019530;28;20252;-83
2022/01/12 09:21:56;;;;;;;46.20;20.57;;;4.20;99.90;;;;;;5017068;28;20171;-82
2022/01/12 09:24:22;;;;;;;49.60;19.93;;;4.20;99.90;;;;;;5003439;28;20171;-82
2022/01/12 09:26:52;;;;;;;46.03;20.23;;;4.20;99.90;;;;;;5013280;28;20187;-82
2022/01/12 09:29:23;;;;;;;45.93;19.53;;;4.30;99.90;;;;;;5020190;28;20209;-82
2022/01/12 09:31:52;;;;;;;46.23;21.53;;;4.20;99.90;;;;;;5012371;28;20190;-82
2022/01/12 09:34:18;;;;;;;44.37;19.93;;;4.20;99.90;;;;;;5004085;28;20186;-82
2022/01/12 09:36:44;;;;;;;47.20;19.93;;;4.10;99.90;;;;;;5011613;28;20705;-82
2022/01/12 09:39:13;;;;;;;48.23;20.03;;;4.10;99.90;;;;;;5003080;28;20237;-82
2022/01/12 09:41:41;;;;;;;53.87;21.20;;;4.20;99.90;;;;;;5019699;28;20167;-82
2022/01/12 09:44:08;;;;;;;47.77;20.07;;;4.20;99.90;;;;;;5020258;28;20701;-83
2022/01/12 09:46:34;;;;;;;51.07;20.87;;;4.20;99.90;;;;;;5001467;28;20190;-82
2022/01/12 09:49:03;;;;;;;44.30;19.77;;;4.10;99.90;;;;;;5004129;28;20198;-82
2022/01/12 09:51:33;;;;;;;48.17;21.00;;;4.10;99.90;;;;;;5001914;28;20270;-82
2022/01/12 09:53:59;;;;;;;61.50;21.77;;;4.10;99.90;;;;;;5017925;28;20170;-82
2022/01/12 09:56:30;;;;;;;55.33;23.03;;;4.20;99.90;;;;;;5008435;28;20178;-82
2022/01/12 09:59:01;;;;;;;46.73;21.80;;;4.20;99.90;;;;;;5005996;28;20276;-82
2022/01/12 10:01:36;;;;;;;45.30;19.93;;;4.30;99.90;;;;;;5019647;28;20174;-82
2022/01/12 10:04:17;;;;;;;47.90;18.60;;;4.20;99.90;;;;;;5020696;28;20194;-82
2022/01/12 10:06:58;;;;;;;47.13;20.43;;;4.20;99.90;;;;;;5006429;28;20528;-82
2022/01/12 10:09:35;;;;;;;51.43;21.10;;;4.20;99.90;;;;;;5023887;28;20221;-82
2022/01/12 10:12:14;;;;;;;46.20;20.13;;;4.20;99.90;;;;;;5025239;28;20212;-82
2022/01/12 10:14:52;;;;;;;40.93;19.37;;;4.20;99.90;;;;;;5023694;28;20167;-82
2022/01/12 10:17:34;;;;;;;47.80;20.73;;;4.30;99.90;;;;;;5009844;28;20195;-82
2022/01/12 10:20:21;;;;;;;36.57;17.00;;;4.40;99.90;;;;;;5008122;28;20277;-82
2022/01/12 10:23:02;;;;;;;39.73;18.57;;;4.30;99.90;;;;;;5009300;28;20171;-82
2022/01/12 10:25:30;;;;;;;41.37;17.53;;;4.30;99.90;;;;;;5029497;28;20213;-81
2022/01/12 10:27:57;;;;;;;37.67;16.10;;;4.30;99.90;;;;;;5012723;28;20174;-82
2022/01/12 10:31:06;;;;;;;37.00;17.67;;;4.20;99.90;;;;;;5009488;28;20207;-83
2022/01/12 10:33:40;;;;;;;40.47;17.60;;;4.20;99.90;;;;;;4987923;28;20195;-82
2022/01/12 10:36:06;;;;;;;38.53;17.50;;;4.30;99.90;;;;;;5024688;28;20177;-82
2022/01/12 10:38:35;;;;;;;36.53;17.93;;;4.40;99.90;;;;;;5008306;28;20217;-82
2022/01/12 10:41:04;;;;;;;40.93;17.77;;;4.40;99.90;;;;;;5016023;28;20693;-81
2022/01/12 10:43:43;;;;;;;38.70;17.00;;;4.40;99.90;;;;;;5010483;28;20170;-81
2022/01/12 10:46:18;;;;;;;35.73;16.07;;;4.40;99.90;;;;;;5007032;28;20171;-82
2022/01/12 10:48:51;;;;;;;36.87;16.53;;;4.50;99.90;;;;;;5021327;28;20185;-82
2022/01/12 10:51:22;;;;;;;38.90;14.93;;;4.50;99.90;;;;;;5004971;28;20206;-82
2022/01/12 10:54:00;;;;;;;38.30;16.27;;;4.50;99.90;;;;;;5021022;28;20665;-82
2022/01/12 10:56:26;;;;;;;42.57;16.33;;;4.50;99.90;;;;;;5020528;28;20176;-82
2022/01/12 10:59:00;;;;;;;37.30;17.00;;;4.50;99.90;;;;;;5004776;28;20194;-81
2022/01/12 11:01:49;;;;;;;36.80;15.20;;;4.60;99.90;;;;;;5005294;28;20245;-82
2022/01/12 11:04:20;;;;;;;35.70;14.50;;;4.60;99.90;;;;;;5021917;28;20201;-83
2022/01/12 11:06:46;;;;;;;29.30;13.67;;;4.70;99.90;;;;;;5006286;28;20630;-82
2022/01/12 11:09:17;;;;;;;29.07;13.40;;;4.90;99.90;;;;;;5021505;28;20222;-82
2022/01/12 11:11:43;;;;;;;33.57;13.80;;;5.00;99.90;;;;;;5002040;28;20191;-82
2022/01/12 11:14:12;;;;;;;30.00;13.27;;;5.10;99.90;;;;;;5007537;28;20258;-82
2022/01/12 11:16:45;;;;;;;36.87;14.50;;;5.00;99.90;;;;;;5022703;28;20176;-82
2022/01/12 11:19:12;;;;;;;32.90;14.60;;;5.00;99.90;;;;;;5021102;28;20196;-82
2022/01/12 11:22:00;;;;;;;29.97;14.07;;;5.00;99.90;;;;;;5005489;28;20702;-82
2022/01/12 11:24:34;;;;;;;31.50;14.57;;;5.10;99.90;;;;;;4995398;28;20218;-81
2022/01/12 11:27:06;;;;;;;28.23;13.70;;;5.30;99.90;;;;;;5006720;28;20185;-81
2022/01/12 11:29:35;;;;;;;34.07;14.60;;;5.40;99.90;;;;;;5004748;28;20209;-83
2022/01/12 11:32:09;;;;;;;33.57;14.20;;;5.40;99.90;;;;;;5021508;28;20181;-81
2022/01/12 11:34:35;;;;;;;31.07;13.93;;;5.40;99.90;;;;;;5010316;28;20182;-81
2022/01/12 11:37:12;;;;;;;32.17;14.57;;;5.40;99.90;;;;;;5010571;28;20262;-81
2022/01/12 11:39:37;;;;;;;30.43;12.70;;;5.30;99.90;;;;;;5020006;28;20201;-81
2022/01/12 11:42:04;;;;;;;28.60;13.07;;;5.30;99.90;;;;;;5004753;28;20271;-81
2022/01/12 11:44:35;;;;;;;34.00;13.50;;;5.30;99.90;;;;;;5010258;28;20171;-81
2022/01/12 11:47:04;;;;;;;31.13;13.70;;;5.20;99.90;;;;;;5005390;28;20175;-82
2022/01/12 11:49:52;;;;;;;33.40;13.80;;;5.20;99.90;;;;;;5023054;28;20195;-82
2022/01/12 11:52:22;;;;;;;34.67;14.10;;;5.20;99.90;;;;;;5006684;28;20180;-82
2022/01/12 11:54:51;;;;;;;32.63;13.43;;;5.40;99.90;;;;;;5006047;28;20181;-82
2022/01/12 11:57:19;;;;;;;29.43;13.50;;;5.50;99.90;;;;;;5021001;28;20237;-82
2022/01/12 12:00:00;;;;;;;36.70;12.97;;;5.50;99.90;;;;;;5019505;28;20190;-81
2022/01/12 12:02:45;;;;;;;34.27;12.93;;;5.50;99.90;;;;;;5005143;28;20179;-80
2022/01/12 12:05:16;;;;;;;24.90;12.00;;;5.60;99.90;;;;;;5018425;28;20179;-81
2022/01/12 12:07:49;;;;;;;28.50;11.40;;;5.80;99.90;;;;;;5004711;28;20189;-81
2022/01/12 12:10:17;;;;;;;24.73;11.47;;;5.80;99.90;;;;;;5019647;28;20227;-82
2022/01/12 12:12:43;;;;;;;23.53;10.80;;;5.90;99.90;;;;;;5003192;28;20263;-81
2022/01/12 12:15:13;;;;;;;32.30;11.80;;;6.00;99.90;;;;;;5003735;28;20239;-81
2022/01/12 12:17:40;;;;;;;26.00;10.40;;;6.00;99.90;;;;;;5003708;28;20303;-81
2022/01/12 12:20:12;;;;;;;26.13;10.73;;;6.10;99.90;;;;;;5020494;28;20200;-83
2022/01/12 12:22:45;;;;;;;27.43;10.93;;;6.10;99.90;;;;;;5002046;28;20169;-82
2022/01/12 12:25:16;;;;;;;26.53;11.20;;;6.00;99.90;;;;;;5002266;28;20195;-83
2022/01/12 12:27:45;;;;;;;24.83;11.93;;;6.00;99.90;;;;;;5026841;28;20660;-82
2022/01/12 12:30:15;;;;;;;24.83;12.03;;;5.90;99.90;;;;;;5027239;28;20226;-80
2022/01/12 12:32:46;;;;;;;21.93;10.60;;;5.90;99.90;;;;;;5017049;28;20187;-83
2022/01/12 12:35:26;;;;;;;29.20;12.40;;;6.10;99.90;;;;;;5030156;28;20185;-81
2022/01/12 12:37:57;;;;;;;32.17;12.03;;;6.20;99.90;;;;;;5011322;28;20284;-82
2022/01/12 12:40:32;;;;;;;29.07;11.90;;;6.20;99.90;;;;;;5021112;28;20254;-82
2022/01/12 12:43:34;;;;;;;26.20;11.50;;;6.10;99.90;;;;;;5005003;28;20252;-82
2022/01/12 12:46:05;;;;;;;26.20;11.10;;;6.10;99.90;;;;;;5005727;28;20172;-82
2022/01/12 12:48:33;;;;;;;30.47;11.87;;;6.10;99.90;;;;;;5019003;28;20175;-82
2022/01/12 12:51:00;;;;;;;29.33;11.57;;;6.20;99.90;;;;;;5004798;28;20436;-82
2022/01/12 12:53:33;;;;;;;23.30;10.80;;;6.10;99.90;;;;;;5013826;28;20181;-83
2022/01/12 12:56:11;;;;;;;26.27;10.60;;;6.10;99.90;;;;;;5003081;28;20181;-81
2022/01/12 12:58:43;;;;;;;29.30;11.60;;;6.10;99.90;;;;;;5003773;28;20665;-81
2022/01/12 13:01:20;;;;;;;28.27;11.43;;;6.20;99.90;;;;;;5020946;28;20188;-83
2022/01/12 13:03:57;;;;;;;24.80;10.80;;;6.20;99.90;;;;;;5021944;28;20187;-82
2022/01/12 13:06:34;;;;;;;23.50;10.10;;;6.20;99.90;;;;;;5013816;28;20230;-82
2022/01/12 13:09:09;;;;;;;26.70;11.73;;;6.20;99.90;;;;;;5021936;28;20232;-82
2022/01/12 13:11:38;;;;;;;27.87;10.77;;;6.20;99.90;;;;;;5006502;28;20171;-81
2022/01/12 13:14:16;;;;;;;27.00;10.40;;;6.20;99.90;;;;;;5024620;28;20183;-81
2022/01/12 13:17:15;;;;;;;25.53;9.77;;;6.20;99.90;;;;;;5011184;28;20185;-82
2022/01/12 13:22:40;;;;;;;25.23;10.47;;;6.40;99.90;;;;;;5018921;28;20170;-83
2022/01/12 13:25:12;;;;;;;26.37;10.03;;;6.40;99.90;;;;;;5009143;28;20185;-82
2022/01/12 13:27:40;;;;;;;22.87;10.60;;;6.30;99.90;;;;;;5003982;28;20265;-83
2022/01/12 13:30:20;;;;;;;26.80;10.60;;;6.10;99.90;;;;;;5012197;28;20214;-82
2022/01/12 13:32:51;;;;;;;24.33;9.77;;;5.90;99.90;;;;;;5014659;28;20168;-84
2022/01/12 13:35:17;;;;;;;21.30;10.07;;;5.90;99.90;;;;;;5004063;28;20195;-84
2022/01/12 13:37:57;;;;;;;20.73;9.47;;;5.90;99.90;;;;;;4999523;28;20300;-84
2022/01/12 13:40:31;;;;;;;25.33;10.43;;;5.90;99.90;;;;;;5018844;28;20200;-83
2022/01/12 13:43:03;;;;;;;22.83;9.40;;;5.90;99.90;;;;;;5021596;28;20228;-82
2022/01/12 13:45:42;;;;;;;21.80;9.70;;;6.00;99.90;;;;;;5003177;28;20714;-82
2022/01/12 13:48:15;;;;;;;28.37;9.93;;;6.10;99.90;;;;;;5014344;28;20179;-82
2022/01/12 13:50:52;;;;;;;22.00;9.43;;;6.10;99.90;;;;;;5019749;28;20202;-82
2022/01/12 13:53:19;;;;;;;20.07;9.57;;;6.00;99.90;;;;;;5021701;28;20276;-82
2022/01/12 13:56:01;;;;;;;18.60;9.93;;;5.90;99.90;;;;;;5008318;28;20177;-82
2022/01/12 13:58:37;;;;;;;27.07;10.97;;;5.90;99.90;;;;;;5020904;28;20307;-82
2022/01/12 14:01:10;;;;;;;27.83;11.87;;;6.00;99.90;;;;;;5025135;28;20173;-82
2022/01/12 14:03:48;;;;;;;24.10;11.30;;;6.00;99.90;;;;;;5031392;28;20223;-82
2022/01/12 14:06:16;;;;;;;22.77;10.97;;;5.90;99.90;;;;;;5030824;28;20162;-82
2022/01/12 14:11:33;;;;;;;28.90;10.20;;;5.80;99.90;;;;;;5019875;28;20219;-78
2022/01/12 14:14:00;;;;;;;26.67;10.60;;;5.80;99.90;;;;;;4991169;28;20168;-78
2022/01/12 14:16:31;;;;;;;25.80;9.83;;;5.70;99.90;;;;;;4986703;28;20184;-78
2022/01/12 14:18:58;;;;;;;22.33;9.93;;;5.80;99.90;;;;;;4972967;28;20188;-78
2022/01/12 14:21:24;;;;;;;23.17;9.83;;;5.80;99.90;;;;;;4989993;28;20244;-78
2022/01/12 14:23:49;;;;;;;22.53;9.47;;;5.80;99.90;;;;;;4991048;28;20265;-78
2022/01/12 14:26:23;;;;;;;26.47;10.47;;;5.80;99.90;;;;;;4990081;28;20260;-78